KCLL/CLL METAR and TAF weather

Enter ICAO airport designator
Station Type Date Time Source
KCLL METAR 2022/06/29 00:53 UTC NOAA

KCLL 290053Z 02010KT 10SM CLR 34/09 A3004 RMK AO2 SLP166 T03390094


Station Type Date Time Source
KCLL Decoded METAR 2022/06/29 00:53 UTC NOAA

COLLEGE STN EASTERWOOD FIELD, TX, United States (KCLL) 30-35N 096-22W 96M
Jun 28, 2022 - 08:53 PM EDT / 2022.06.29 0053 UTC
Wind: from the NNE (020 degrees) at 12 MPH (10 KT):0
Visibility: 10 mile(s):0
Sky conditions: clear
Temperature: 93.0 F (33.9 C)
Dew Point: 48.9 F (9.4 C)
Relative Humidity: 22%
Pressure (altimeter): 30.04 in. Hg (1017 hPa)
ob: KCLL 290053Z 02010KT 10SM CLR 34/09 A3004 RMK AO2 SLP166 T03390094
cycle: 1

Station Type Date Time Source
KCLL TAF 2022/06/28 18:22 UTC NOAA

TAF KCLL 281720Z 2818/2918 05007KT P6SM SCT035 BKN045 OVC060
FM282000 02008KT P6SM SCT060 SCT250
FM290200 VRB04KT P6SM FEW060 SCT150
FM291500 09007KT P6SM SCT050

Example: see airport list